sensor_id;sensor_type;location;lat;lon;timestamp;P1;durP1;ratioP1;P2;durP2;ratioP2
66020;SDS011;52789;59.980;30.346;2024-02-15T00:00:41;16.67;;;10.70;;
66020;SDS011;52789;59.980;30.346;2024-02-15T00:03:08;22.15;;;13.30;;
66020;SDS011;52789;59.980;30.346;2024-02-15T00:05:38;19.02;;;11.23;;
66020;SDS011;52789;59.980;30.346;2024-02-15T00:08:04;19.27;;;11.02;;
66020;SDS011;52789;59.980;30.346;2024-02-15T00:10:31;21.98;;;11.07;;
66020;SDS011;52789;59.980;30.346;2024-02-15T00:12:57;18.10;;;12.50;;
66020;SDS011;52789;59.980;30.346;2024-02-15T00:15:23;16.48;;;10.00;;
66020;SDS011;52789;59.980;30.346;2024-02-15T00:17:49;24.63;;;10.77;;
66020;SDS011;52789;59.980;30.346;2024-02-15T00:20:14;17.53;;;11.00;;
66020;SDS011;52789;59.980;30.346;2024-02-15T00:22:41;19.85;;;11.40;;
66020;SDS011;52789;59.980;30.346;2024-02-15T00:25:07;18.97;;;11.30;;
66020;SDS011;52789;59.980;30.346;2024-02-15T00:27:34;22.38;;;10.95;;
66020;SDS011;52789;59.980;30.346;2024-02-15T00:30:00;19.00;;;11.38;;
66020;SDS011;52789;59.980;30.346;2024-02-15T00:32:29;16.92;;;10.77;;
66020;SDS011;52789;59.980;30.346;2024-02-15T00:34:54;14.83;;;11.73;;
66020;SDS011;52789;59.980;30.346;2024-02-15T00:37:20;21.87;;;11.23;;
66020;SDS011;52789;59.980;30.346;2024-02-15T00:39:46;16.53;;;10.20;;
66020;SDS011;52789;59.980;30.346;2024-02-15T00:42:11;23.27;;;12.17;;
66020;SDS011;52789;59.980;30.346;2024-02-15T00:44:37;16.03;;;10.97;;
66020;SDS011;52789;59.980;30.346;2024-02-15T00:47:03;18.23;;;11.93;;
66020;SDS011;52789;59.980;30.346;2024-02-15T00:49:28;21.30;;;11.30;;
66020;SDS011;52789;59.980;30.346;2024-02-15T00:51:54;14.40;;;9.73;;
66020;SDS011;52789;59.980;30.346;2024-02-15T00:54:20;23.83;;;11.43;;
66020;SDS011;52789;59.980;30.346;2024-02-15T00:56:45;15.00;;;9.50;;
66020;SDS011;52789;59.980;30.346;2024-02-15T00:59:11;19.10;;;10.47;;
66020;SDS011;52789;59.980;30.346;2024-02-15T01:01:36;24.57;;;12.00;;
66020;SDS011;52789;59.980;30.346;2024-02-15T01:04:03;15.70;;;10.90;;
66020;SDS011;52789;59.980;30.346;2024-02-15T01:06:30;17.70;;;13.55;;
66020;SDS011;52789;59.980;30.346;2024-02-15T01:08:56;17.52;;;12.38;;
66020;SDS011;52789;59.980;30.346;2024-02-15T01:11:22;19.02;;;10.60;;
66020;SDS011;52789;59.980;30.346;2024-02-15T01:13:49;22.38;;;11.93;;
66020;SDS011;52789;59.980;30.346;2024-02-15T01:16:16;19.10;;;11.10;;
66020;SDS011;52789;59.980;30.346;2024-02-15T01:18:41;17.93;;;12.37;;
66020;SDS011;52789;59.980;30.346;2024-02-15T01:21:07;18.50;;;12.63;;
66020;SDS011;52789;59.980;30.346;2024-02-15T01:23:32;18.47;;;10.37;;
66020;SDS011;52789;59.980;30.346;2024-02-15T01:26:02;16.98;;;11.55;;
66020;SDS011;52789;59.980;30.346;2024-02-15T01:28:28;19.63;;;11.43;;
66020;SDS011;52789;59.980;30.346;2024-02-15T01:30:54;18.77;;;10.83;;
66020;SDS011;52789;59.980;30.346;2024-02-15T01:33:19;21.60;;;13.40;;
66020;SDS011;52789;59.980;30.346;2024-02-15T01:35:45;19.77;;;12.20;;
66020;SDS011;52789;59.980;30.346;2024-02-15T01:38:11;21.97;;;13.80;;
66020;SDS011;52789;59.980;30.346;2024-02-15T01:40:36;20.77;;;12.97;;
66020;SDS011;52789;59.980;30.346;2024-02-15T01:43:02;20.87;;;13.07;;
66020;SDS011;52789;59.980;30.346;2024-02-15T01:45:29;21.42;;;11.30;;
66020;SDS011;52789;59.980;30.346;2024-02-15T01:47:54;17.87;;;10.83;;
66020;SDS011;52789;59.980;30.346;2024-02-15T01:50:21;21.05;;;11.15;;
66020;SDS011;52789;59.980;30.346;2024-02-15T01:52:49;18.08;;;10.93;;
66020;SDS011;52789;59.980;30.346;2024-02-15T01:55:18;23.10;;;13.38;;
66020;SDS011;52789;59.980;30.346;2024-02-15T01:57:44;16.83;;;12.20;;
66020;SDS011;52789;59.980;30.346;2024-02-15T02:00:13;19.20;;;10.85;;
66020;SDS011;52789;59.980;30.346;2024-02-15T02:02:50;16.80;;;11.00;;
66020;SDS011;52789;59.980;30.346;2024-02-15T02:05:18;14.85;;;9.80;;
66020;SDS011;52789;59.980;30.346;2024-02-15T02:07:45;18.60;;;11.85;;
66020;SDS011;52789;59.980;30.346;2024-02-15T02:10:11;22.13;;;11.47;;
66020;SDS011;52789;59.980;30.346;2024-02-15T02:12:38;17.65;;;10.48;;
66020;SDS011;52789;59.980;30.346;2024-02-15T02:15:08;16.67;;;11.00;;
66020;SDS011;52789;59.980;30.346;2024-02-15T02:17:34;15.85;;;11.20;;
66020;SDS011;52789;59.980;30.346;2024-02-15T02:20:01;19.02;;;11.70;;
66020;SDS011;52789;59.980;30.346;2024-02-15T02:22:34;20.67;;;11.32;;
66020;SDS011;52789;59.980;30.346;2024-02-15T02:25:01;21.67;;;12.73;;
66020;SDS011;52789;59.980;30.346;2024-02-15T02:27:35;19.65;;;12.13;;
66020;SDS011;52789;59.980;30.346;2024-02-15T02:30:04;22.63;;;13.57;;
66020;SDS011;52789;59.980;30.346;2024-02-15T02:32:34;19.85;;;12.13;;
66020;SDS011;52789;59.980;30.346;2024-02-15T02:35:01;17.63;;;10.65;;
66020;SDS011;52789;59.980;30.346;2024-02-15T02:37:28;20.08;;;10.95;;
66020;SDS011;52789;59.980;30.346;2024-02-15T02:39:54;18.73;;;13.10;;
66020;SDS011;52789;59.980;30.346;2024-02-15T02:42:20;15.53;;;10.77;;
66020;SDS011;52789;59.980;30.346;2024-02-15T02:44:46;19.38;;;13.07;;
66020;SDS011;52789;59.980;30.346;2024-02-15T02:47:11;17.80;;;11.53;;
66020;SDS011;52789;59.980;30.346;2024-02-15T02:49:37;17.33;;;11.67;;
66020;SDS011;52789;59.980;30.346;2024-02-15T02:52:03;20.97;;;12.50;;
66020;SDS011;52789;59.980;30.346;2024-02-15T02:54:29;22.55;;;12.57;;
66020;SDS011;52789;59.980;30.346;2024-02-15T02:56:55;24.17;;;12.50;;
66020;SDS011;52789;59.980;30.346;2024-02-15T02:59:21;19.50;;;10.83;;
66020;SDS011;52789;59.980;30.346;2024-02-15T03:01:47;21.40;;;12.90;;
66020;SDS011;52789;59.980;30.346;2024-02-15T03:04:15;20.92;;;12.20;;
66020;SDS011;52789;59.980;30.346;2024-02-15T03:06:42;28.83;;;13.48;;
66020;SDS011;52789;59.980;30.346;2024-02-15T03:09:08;20.20;;;12.05;;
66020;SDS011;52789;59.980;30.346;2024-02-15T03:11:36;28.25;;;13.02;;
66020;SDS011;52789;59.980;30.346;2024-02-15T03:14:02;21.07;;;11.53;;
66020;SDS011;52789;59.980;30.346;2024-02-15T03:16:31;31.85;;;15.45;;
66020;SDS011;52789;59.980;30.346;2024-02-15T03:18:57;22.50;;;13.93;;
66020;SDS011;52789;59.980;30.346;2024-02-15T03:21:22;25.67;;;14.20;;
66020;SDS011;52789;59.980;30.346;2024-02-15T03:23:48;32.30;;;14.20;;
66020;SDS011;52789;59.980;30.346;2024-02-15T03:26:13;25.53;;;12.83;;
66020;SDS011;52789;59.980;30.346;2024-02-15T03:28:39;22.70;;;11.93;;
66020;SDS011;52789;59.980;30.346;2024-02-15T03:31:05;28.63;;;14.20;;
66020;SDS011;52789;59.980;30.346;2024-02-15T03:33:30;26.70;;;14.17;;
66020;SDS011;52789;59.980;30.346;2024-02-15T03:36:00;22.40;;;14.27;;
66020;SDS011;52789;59.980;30.346;2024-02-15T03:38:26;20.97;;;13.20;;
66020;SDS011;52789;59.980;30.346;2024-02-15T03:40:57;25.35;;;16.67;;
66020;SDS011;52789;59.980;30.346;2024-02-15T03:43:23;24.73;;;13.63;;
66020;SDS011;52789;59.980;30.346;2024-02-15T03:45:49;25.27;;;13.83;;
66020;SDS011;52789;59.980;30.346;2024-02-15T03:48:16;29.42;;;15.00;;
66020;SDS011;52789;59.980;30.346;2024-02-15T03:50:42;21.48;;;13.70;;
66020;SDS011;52789;59.980;30.346;2024-02-15T03:53:09;22.27;;;12.88;;
66020;SDS011;52789;59.980;30.346;2024-02-15T03:55:36;21.45;;;12.90;;
66020;SDS011;52789;59.980;30.346;2024-02-15T03:58:02;26.40;;;16.03;;
66020;SDS011;52789;59.980;30.346;2024-02-15T04:00:27;24.40;;;13.43;;
66020;SDS011;52789;59.980;30.346;2024-02-15T04:02:53;27.73;;;14.77;;
66020;SDS011;52789;59.980;30.346;2024-02-15T04:05:20;25.65;;;12.65;;
66020;SDS011;52789;59.980;30.346;2024-02-15T04:07:47;27.25;;;16.13;;
66020;SDS011;52789;59.980;30.346;2024-02-15T04:10:13;25.25;;;13.88;;
66020;SDS011;52789;59.980;30.346;2024-02-15T04:12:57;25.65;;;13.60;;
66020;SDS011;52789;59.980;30.346;2024-02-15T04:15:25;28.33;;;14.95;;
66020;SDS011;52789;59.980;30.346;2024-02-15T04:17:51;26.10;;;14.30;;
66020;SDS011;52789;59.980;30.346;2024-02-15T04:20:22;23.90;;;14.40;;
66020;SDS011;52789;59.980;30.346;2024-02-15T04:22:47;28.70;;;14.97;;
66020;SDS011;52789;59.980;30.346;2024-02-15T04:25:17;28.33;;;13.77;;
66020;SDS011;52789;59.980;30.346;2024-02-15T04:27:46;25.00;;;13.27;;
66020;SDS011;52789;59.980;30.346;2024-02-15T04:30:17;20.85;;;14.50;;
66020;SDS011;52789;59.980;30.346;2024-02-15T04:32:43;24.80;;;14.40;;
66020;SDS011;52789;59.980;30.346;2024-02-15T04:35:09;30.03;;;15.87;;
66020;SDS011;52789;59.980;30.346;2024-02-15T04:37:35;26.02;;;14.18;;
66020;SDS011;52789;59.980;30.346;2024-02-15T04:40:02;22.60;;;14.40;;
66020;SDS011;52789;59.980;30.346;2024-02-15T04:42:40;27.05;;;13.95;;
66020;SDS011;52789;59.980;30.346;2024-02-15T04:45:07;31.88;;;16.70;;
66020;SDS011;52789;59.980;30.346;2024-02-15T04:47:42;26.52;;;15.20;;
66020;SDS011;52789;59.980;30.346;2024-02-15T04:50:10;28.70;;;13.45;;
66020;SDS011;52789;59.980;30.346;2024-02-15T04:52:39;28.88;;;14.18;;
66020;SDS011;52789;59.980;30.346;2024-02-15T04:55:04;29.27;;;13.73;;
66020;SDS011;52789;59.980;30.346;2024-02-15T04:57:30;24.73;;;13.80;;
66020;SDS011;52789;59.980;30.346;2024-02-15T04:59:58;25.95;;;14.90;;
66020;SDS011;52789;59.980;30.346;2024-02-15T05:02:24;30.73;;;16.38;;
66020;SDS011;52789;59.980;30.346;2024-02-15T05:04:50;28.23;;;15.93;;
66020;SDS011;52789;59.980;30.346;2024-02-15T05:07:21;23.10;;;12.50;;
66020;SDS011;52789;59.980;30.346;2024-02-15T05:09:48;25.05;;;14.75;;
66020;SDS011;52789;59.980;30.346;2024-02-15T05:12:21;27.27;;;14.23;;
66020;SDS011;52789;59.980;30.346;2024-02-15T05:14:50;28.05;;;13.43;;
66020;SDS011;52789;59.980;30.346;2024-02-15T05:17:16;31.63;;;14.43;;
66020;SDS011;52789;59.980;30.346;2024-02-15T05:19:42;28.33;;;16.15;;
66020;SDS011;52789;59.980;30.346;2024-02-15T05:22:07;29.47;;;13.87;;
66020;SDS011;52789;59.980;30.346;2024-02-15T05:24:34;28.57;;;16.27;;
66020;SDS011;52789;59.980;30.346;2024-02-15T05:27:00;26.02;;;15.55;;
66020;SDS011;52789;59.980;30.346;2024-02-15T05:29:26;28.40;;;15.03;;
66020;SDS011;52789;59.980;30.346;2024-02-15T05:31:52;35.45;;;16.25;;
66020;SDS011;52789;59.980;30.346;2024-02-15T05:34:19;35.75;;;18.48;;
66020;SDS011;52789;59.980;30.346;2024-02-15T05:36:45;27.80;;;15.07;;
66020;SDS011;52789;59.980;30.346;2024-02-15T05:39:13;30.38;;;14.55;;
66020;SDS011;52789;59.980;30.346;2024-02-15T05:41:39;28.60;;;14.35;;
66020;SDS011;52789;59.980;30.346;2024-02-15T05:44:05;26.13;;;14.30;;
66020;SDS011;52789;59.980;30.346;2024-02-15T05:46:32;23.60;;;14.60;;
66020;SDS011;52789;59.980;30.346;2024-02-15T05:48:58;31.45;;;16.60;;
66020;SDS011;52789;59.980;30.346;2024-02-15T05:51:24;35.53;;;15.57;;
66020;SDS011;52789;59.980;30.346;2024-02-15T05:53:50;31.33;;;15.73;;
66020;SDS011;52789;59.980;30.346;2024-02-15T05:56:16;31.10;;;15.47;;
66020;SDS011;52789;59.980;30.346;2024-02-15T05:58:41;35.30;;;14.80;;
66020;SDS011;52789;59.980;30.346;2024-02-15T06:01:07;37.57;;;16.37;;
66020;SDS011;52789;59.980;30.346;2024-02-15T06:03:37;33.13;;;16.88;;
66020;SDS011;52789;59.980;30.346;2024-02-15T06:06:04;34.00;;;14.55;;
66020;SDS011;52789;59.980;30.346;2024-02-15T06:08:33;33.75;;;18.63;;
66020;SDS011;52789;59.980;30.346;2024-02-15T06:11:02;30.23;;;15.60;;
66020;SDS011;52789;59.980;30.346;2024-02-15T06:13:30;40.75;;;18.73;;
66020;SDS011;52789;59.980;30.346;2024-02-15T06:15:56;31.83;;;17.25;;
66020;SDS011;52789;59.980;30.346;2024-02-15T06:18:26;31.63;;;17.35;;
66020;SDS011;52789;59.980;30.346;2024-02-15T06:20:54;31.42;;;17.23;;
66020;SDS011;52789;59.980;30.346;2024-02-15T06:23:22;34.47;;;16.90;;
66020;SDS011;52789;59.980;30.346;2024-02-15T06:25:50;32.22;;;16.40;;
66020;SDS011;52789;59.980;30.346;2024-02-15T06:28:21;34.55;;;18.17;;
66020;SDS011;52789;59.980;30.346;2024-02-15T06:31:08;35.05;;;18.48;;
66020;SDS011;52789;59.980;30.346;2024-02-15T06:33:53;31.27;;;17.73;;
66020;SDS011;52789;59.980;30.346;2024-02-15T06:36:46;39.20;;;19.25;;
66020;SDS011;52789;59.980;30.346;2024-02-15T06:39:31;31.98;;;17.63;;
66020;SDS011;52789;59.980;30.346;2024-02-15T06:42:12;30.85;;;17.52;;
66020;SDS011;52789;59.980;30.346;2024-02-15T06:44:47;40.25;;;19.15;;
66020;SDS011;52789;59.980;30.346;2024-02-15T06:47:13;44.20;;;18.83;;
66020;SDS011;52789;59.980;30.346;2024-02-15T06:49:40;31.00;;;16.58;;
66020;SDS011;52789;59.980;30.346;2024-02-15T06:52:07;32.30;;;17.10;;
66020;SDS011;52789;59.980;30.346;2024-02-15T06:54:33;37.47;;;17.13;;
66020;SDS011;52789;59.980;30.346;2024-02-15T06:57:01;25.05;;;15.80;;
66020;SDS011;52789;59.980;30.346;2024-02-15T06:59:29;30.80;;;15.73;;
66020;SDS011;52789;59.980;30.346;2024-02-15T07:01:57;31.02;;;14.68;;
66020;SDS011;52789;59.980;30.346;2024-02-15T07:04:23;37.92;;;17.45;;
66020;SDS011;52789;59.980;30.346;2024-02-15T07:06:50;34.65;;;16.67;;
66020;SDS011;52789;59.980;30.346;2024-02-15T07:09:17;36.15;;;16.70;;
66020;SDS011;52789;59.980;30.346;2024-02-15T07:11:45;33.72;;;16.00;;
66020;SDS011;52789;59.980;30.346;2024-02-15T07:14:12;34.87;;;17.00;;
66020;SDS011;52789;59.980;30.346;2024-02-15T07:16:38;35.63;;;18.40;;
66020;SDS011;52789;59.980;30.346;2024-02-15T07:19:03;31.53;;;15.20;;
66020;SDS011;52789;59.980;30.346;2024-02-15T07:21:29;38.63;;;18.87;;
66020;SDS011;52789;59.980;30.346;2024-02-15T07:23:56;51.03;;;20.88;;
66020;SDS011;52789;59.980;30.346;2024-02-15T07:26:23;32.83;;;19.17;;
66020;SDS011;52789;59.980;30.346;2024-02-15T07:28:54;36.95;;;16.98;;
66020;SDS011;52789;59.980;30.346;2024-02-15T07:31:20;34.65;;;17.27;;
66020;SDS011;52789;59.980;30.346;2024-02-15T07:33:47;33.57;;;16.03;;
66020;SDS011;52789;59.980;30.346;2024-02-15T07:36:17;36.58;;;18.80;;
66020;SDS011;52789;59.980;30.346;2024-02-15T07:38:43;32.88;;;17.83;;
66020;SDS011;52789;59.980;30.346;2024-02-15T07:41:10;34.72;;;18.40;;
66020;SDS011;52789;59.980;30.346;2024-02-15T07:43:37;37.28;;;18.92;;
66020;SDS011;52789;59.980;30.346;2024-02-15T07:46:04;36.22;;;18.70;;
66020;SDS011;52789;59.980;30.346;2024-02-15T07:48:29;36.47;;;19.20;;
66020;SDS011;52789;59.980;30.346;2024-02-15T07:50:55;33.77;;;17.03;;
66020;SDS011;52789;59.980;30.346;2024-02-15T07:53:21;32.67;;;17.83;;
66020;SDS011;52789;59.980;30.346;2024-02-15T07:55:46;31.60;;;18.63;;
66020;SDS011;52789;59.980;30.346;2024-02-15T07:58:11;37.23;;;19.43;;
66020;SDS011;52789;59.980;30.346;2024-02-15T08:00:38;37.05;;;16.15;;
66020;SDS011;52789;59.980;30.346;2024-02-15T08:03:04;37.63;;;19.10;;
66020;SDS011;52789;59.980;30.346;2024-02-15T08:05:29;36.37;;;18.43;;
66020;SDS011;52789;59.980;30.346;2024-02-15T08:07:55;41.90;;;18.97;;
66020;SDS011;52789;59.980;30.346;2024-02-15T08:10:22;35.92;;;19.35;;
66020;SDS011;52789;59.980;30.346;2024-02-15T08:12:48;41.10;;;21.13;;
66020;SDS011;52789;59.980;30.346;2024-02-15T08:15:17;36.58;;;17.58;;
66020;SDS011;52789;59.980;30.346;2024-02-15T08:17:44;38.13;;;17.27;;
66020;SDS011;52789;59.980;30.346;2024-02-15T08:20:11;64.88;;;25.38;;
66020;SDS011;52789;59.980;30.346;2024-02-15T08:22:39;37.28;;;20.20;;
66020;SDS011;52789;59.980;30.346;2024-02-15T08:25:08;36.47;;;19.88;;
66020;SDS011;52789;59.980;30.346;2024-02-15T08:27:38;39.63;;;19.10;;
66020;SDS011;52789;59.980;30.346;2024-02-15T08:30:11;43.25;;;23.52;;
66020;SDS011;52789;59.980;30.346;2024-02-15T08:32:40;48.67;;;20.17;;
66020;SDS011;52789;59.980;30.346;2024-02-15T08:35:13;41.47;;;21.92;;
66020;SDS011;52789;59.980;30.346;2024-02-15T08:37:40;42.72;;;22.00;;
66020;SDS011;52789;59.980;30.346;2024-02-15T08:40:07;37.72;;;19.10;;
66020;SDS011;52789;59.980;30.346;2024-02-15T08:42:41;42.05;;;19.13;;
66020;SDS011;52789;59.980;30.346;2024-02-15T08:45:08;36.63;;;19.90;;
66020;SDS011;52789;59.980;30.346;2024-02-15T08:47:43;34.25;;;20.35;;
66020;SDS011;52789;59.980;30.346;2024-02-15T08:50:11;43.65;;;18.48;;
66020;SDS011;52789;59.980;30.346;2024-02-15T08:52:39;35.57;;;19.43;;
66020;SDS011;52789;59.980;30.346;2024-02-15T08:55:06;37.88;;;17.45;;
66020;SDS011;52789;59.980;30.346;2024-02-15T08:57:32;37.45;;;19.52;;
66020;SDS011;52789;59.980;30.346;2024-02-15T08:59:58;35.38;;;19.95;;
66020;SDS011;52789;59.980;30.346;2024-02-15T09:02:24;37.30;;;19.23;;
66020;SDS011;52789;59.980;30.346;2024-02-15T09:04:50;35.80;;;19.00;;
66020;SDS011;52789;59.980;30.346;2024-02-15T09:07:15;39.13;;;18.40;;
66020;SDS011;52789;59.980;30.346;2024-02-15T09:09:41;38.00;;;21.20;;
66020;SDS011;52789;59.980;30.346;2024-02-15T09:12:06;36.33;;;18.70;;
66020;SDS011;52789;59.980;30.346;2024-02-15T09:14:33;41.57;;;21.47;;
66020;SDS011;52789;59.980;30.346;2024-02-15T09:17:01;38.35;;;18.98;;
66020;SDS011;52789;59.980;30.346;2024-02-15T09:19:35;38.83;;;21.05;;
66020;SDS011;52789;59.980;30.346;2024-02-15T09:22:01;41.57;;;20.47;;
66020;SDS011;52789;59.980;30.346;2024-02-15T09:24:29;43.42;;;19.33;;
66020;SDS011;52789;59.980;30.346;2024-02-15T09:26:56;39.95;;;23.80;;
66020;SDS011;52789;59.980;30.346;2024-02-15T09:29:23;36.88;;;18.25;;
66020;SDS011;52789;59.980;30.346;2024-02-15T09:31:49;35.58;;;18.50;;
66020;SDS011;52789;59.980;30.346;2024-02-15T09:34:15;34.40;;;17.63;;
66020;SDS011;52789;59.980;30.346;2024-02-15T09:36:40;37.93;;;17.93;;
66020;SDS011;52789;59.980;30.346;2024-02-15T09:39:06;37.77;;;20.40;;
66020;SDS011;52789;59.980;30.346;2024-02-15T09:41:31;35.73;;;19.80;;
66020;SDS011;52789;59.980;30.346;2024-02-15T09:43:59;35.30;;;17.70;;
66020;SDS011;52789;59.980;30.346;2024-02-15T09:46:26;38.05;;;19.60;;
66020;SDS011;52789;59.980;30.346;2024-02-15T09:48:52;39.27;;;20.37;;
66020;SDS011;52789;59.980;30.346;2024-02-15T09:51:24;34.28;;;18.98;;
66020;SDS011;52789;59.980;30.346;2024-02-15T09:53:50;39.47;;;19.20;;
66020;SDS011;52789;59.980;30.346;2024-02-15T09:56:16;31.95;;;18.48;;
66020;SDS011;52789;59.980;30.346;2024-02-15T09:58:43;39.72;;;19.17;;
66020;SDS011;52789;59.980;30.346;2024-02-15T10:01:09;37.30;;;18.05;;
66020;SDS011;52789;59.980;30.346;2024-02-15T10:03:39;33.28;;;20.52;;
66020;SDS011;52789;59.980;30.346;2024-02-15T10:06:06;40.60;;;19.75;;
66020;SDS011;52789;59.980;30.346;2024-02-15T10:08:32;33.30;;;18.97;;
66020;SDS011;52789;59.980;30.346;2024-02-15T10:11:07;38.07;;;20.60;;
66020;SDS011;52789;59.980;30.346;2024-02-15T10:13:34;33.70;;;17.63;;
66020;SDS011;52789;59.980;30.346;2024-02-15T10:16:00;38.75;;;18.92;;
66020;SDS011;52789;59.980;30.346;2024-02-15T10:18:42;33.13;;;18.63;;
66020;SDS011;52789;59.980;30.346;2024-02-15T10:21:08;36.97;;;19.83;;
66020;SDS011;52789;59.980;30.346;2024-02-15T10:23:33;39.80;;;20.97;;
66020;SDS011;52789;59.980;30.346;2024-02-15T10:25:59;33.10;;;19.13;;
66020;SDS011;52789;59.980;30.346;2024-02-15T10:28:27;39.58;;;21.50;;
66020;SDS011;52789;59.980;30.346;2024-02-15T10:30:54;38.20;;;19.77;;
66020;SDS011;52789;59.980;30.346;2024-02-15T10:33:20;42.33;;;20.67;;
66020;SDS011;52789;59.980;30.346;2024-02-15T10:36:07;37.33;;;20.33;;
66020;SDS011;52789;59.980;30.346;2024-02-15T10:38:33;37.20;;;21.73;;
66020;SDS011;52789;59.980;30.346;2024-02-15T10:41:05;39.57;;;21.87;;
66020;SDS011;52789;59.980;30.346;2024-02-15T10:43:33;44.25;;;22.42;;
66020;SDS011;52789;59.980;30.346;2024-02-15T10:46:00;40.13;;;19.38;;
66020;SDS011;52789;59.980;30.346;2024-02-15T10:48:28;38.53;;;21.05;;
66020;SDS011;52789;59.980;30.346;2024-02-15T10:50:55;40.83;;;21.70;;
66020;SDS011;52789;59.980;30.346;2024-02-15T10:53:27;44.83;;;20.73;;
66020;SDS011;52789;59.980;30.346;2024-02-15T10:58:40;45.17;;;20.10;;
66020;SDS011;52789;59.980;30.346;2024-02-15T11:01:12;37.15;;;20.10;;
66020;SDS011;52789;59.980;30.346;2024-02-15T11:03:55;46.55;;;22.90;;
66020;SDS011;52789;59.980;30.346;2024-02-15T11:06:27;36.25;;;18.70;;
66020;SDS011;52789;59.980;30.346;2024-02-15T11:08:56;39.55;;;20.95;;
66020;SDS011;52789;59.980;30.346;2024-02-15T11:11:23;33.75;;;18.80;;
66020;SDS011;52789;59.980;30.346;2024-02-15T11:13:49;35.17;;;21.03;;
66020;SDS011;52789;59.980;30.346;2024-02-15T11:19:06;43.35;;;24.95;;
66020;SDS011;52789;59.980;30.346;2024-02-15T11:24:30;43.83;;;20.77;;
66020;SDS011;52789;59.980;30.346;2024-02-15T11:27:03;41.35;;;21.33;;
66020;SDS011;52789;59.980;30.346;2024-02-15T11:32:50;45.72;;;22.33;;
66020;SDS011;52789;59.980;30.346;2024-02-15T11:40:16;47.22;;;22.25;;
66020;SDS011;52789;59.980;30.346;2024-02-15T11:42:45;44.13;;;21.55;;
66020;SDS011;52789;59.980;30.346;2024-02-15T11:45:15;34.95;;;20.42;;
66020;SDS011;52789;59.980;30.346;2024-02-15T11:47:43;43.63;;;24.15;;
66020;SDS011;52789;59.980;30.346;2024-02-15T11:50:18;41.88;;;20.80;;
66020;SDS011;52789;59.980;30.346;2024-02-15T11:52:45;39.95;;;20.58;;
66020;SDS011;52789;59.980;30.346;2024-02-15T11:55:13;35.75;;;18.75;;
66020;SDS011;52789;59.980;30.346;2024-02-15T11:57:40;41.17;;;21.20;;
66020;SDS011;52789;59.980;30.346;2024-02-15T12:00:20;35.30;;;19.05;;
66020;SDS011;52789;59.980;30.346;2024-02-15T12:03:08;38.10;;;21.65;;
66020;SDS011;52789;59.980;30.346;2024-02-15T12:05:54;37.33;;;19.92;;
66020;SDS011;52789;59.980;30.346;2024-02-15T12:08:39;38.35;;;20.73;;
66020;SDS011;52789;59.980;30.346;2024-02-15T12:11:23;35.75;;;18.48;;
66020;SDS011;52789;59.980;30.346;2024-02-15T12:14:07;41.88;;;22.05;;
66020;SDS011;52789;59.980;30.346;2024-02-15T12:19:50;35.85;;;20.15;;
66020;SDS011;52789;59.980;30.346;2024-02-15T12:25:21;46.20;;;20.75;;
66020;SDS011;52789;59.980;30.346;2024-02-15T12:27:41;40.40;;;23.65;;
66020;SDS011;52789;59.980;30.346;2024-02-15T12:30:12;39.55;;;21.50;;
66020;SDS011;52789;59.980;30.346;2024-02-15T12:32:39;41.10;;;20.90;;
66020;SDS011;52789;59.980;30.346;2024-02-15T12:35:11;54.30;;;37.97;;
66020;SDS011;52789;59.980;30.346;2024-02-15T12:40:29;40.67;;;21.27;;
66020;SDS011;52789;59.980;30.346;2024-02-15T12:43:01;39.78;;;22.73;;
66020;SDS011;52789;59.980;30.346;2024-02-15T12:47:56;42.20;;;21.98;;
66020;SDS011;52789;59.980;30.346;2024-02-15T12:50:31;41.95;;;18.58;;
66020;SDS011;52789;59.980;30.346;2024-02-15T12:52:57;36.30;;;19.48;;
66020;SDS011;52789;59.980;30.346;2024-02-15T12:55:32;44.90;;;22.17;;
66020;SDS011;52789;59.980;30.346;2024-02-15T12:58:00;32.47;;;18.73;;
66020;SDS011;52789;59.980;30.346;2024-02-15T13:00:29;38.13;;;18.60;;
66020;SDS011;52789;59.980;30.346;2024-02-15T13:02:59;37.00;;;20.08;;
66020;SDS011;52789;59.980;30.346;2024-02-15T13:05:28;37.47;;;22.05;;
66020;SDS011;52789;59.980;30.346;2024-02-15T13:07:55;42.63;;;19.58;;
66020;SDS011;52789;59.980;30.346;2024-02-15T13:10:23;41.67;;;21.75;;
66020;SDS011;52789;59.980;30.346;2024-02-15T13:12:52;36.90;;;19.67;;
66020;SDS011;52789;59.980;30.346;2024-02-15T13:17:47;40.28;;;21.83;;
66020;SDS011;52789;59.980;30.346;2024-02-15T13:20:22;46.92;;;24.15;;
66020;SDS011;52789;59.980;30.346;2024-02-15T13:23:01;36.83;;;20.85;;
66020;SDS011;52789;59.980;30.346;2024-02-15T13:25:35;45.90;;;21.05;;
66020;SDS011;52789;59.980;30.346;2024-02-15T13:28:08;53.75;;;24.58;;
66020;SDS011;52789;59.980;30.346;2024-02-15T13:30:35;42.50;;;22.65;;
66020;SDS011;52789;59.980;30.346;2024-02-15T13:33:03;47.10;;;24.45;;
66020;SDS011;52789;59.980;30.346;2024-02-15T13:35:29;39.92;;;20.88;;
66020;SDS011;52789;59.980;30.346;2024-02-15T13:37:55;45.57;;;23.63;;
66020;SDS011;52789;59.980;30.346;2024-02-15T13:40:23;44.45;;;22.25;;
66020;SDS011;52789;59.980;30.346;2024-02-15T13:42:54;36.83;;;20.25;;
66020;SDS011;52789;59.980;30.346;2024-02-15T13:45:42;45.22;;;22.70;;
66020;SDS011;52789;59.980;30.346;2024-02-15T13:48:09;40.35;;;22.58;;
66020;SDS011;52789;59.980;30.346;2024-02-15T13:50:47;35.20;;;18.88;;
66020;SDS011;52789;59.980;30.346;2024-02-15T13:53:12;33.35;;;20.15;;
66020;SDS011;52789;59.980;30.346;2024-02-15T13:55:42;39.95;;;22.20;;
66020;SDS011;52789;59.980;30.346;2024-02-15T13:58:07;40.50;;;21.97;;
66020;SDS011;52789;59.980;30.346;2024-02-15T14:00:37;39.38;;;21.70;;
66020;SDS011;52789;59.980;30.346;2024-02-15T14:03:03;40.20;;;20.50;;
66020;SDS011;52789;59.980;30.346;2024-02-15T14:05:31;38.17;;;21.38;;
66020;SDS011;52789;59.980;30.346;2024-02-15T14:08:01;48.30;;;24.15;;
66020;SDS011;52789;59.980;30.346;2024-02-15T14:10:28;42.85;;;20.13;;
66020;SDS011;52789;59.980;30.346;2024-02-15T14:12:57;38.92;;;20.52;;
66020;SDS011;52789;59.980;30.346;2024-02-15T14:15:23;39.83;;;22.63;;
66020;SDS011;52789;59.980;30.346;2024-02-15T14:17:51;42.28;;;21.70;;
66020;SDS011;52789;59.980;30.346;2024-02-15T14:20:17;42.95;;;22.92;;
66020;SDS011;52789;59.980;30.346;2024-02-15T14:22:47;41.58;;;21.83;;
66020;SDS011;52789;59.980;30.346;2024-02-15T14:25:16;44.03;;;24.95;;
66020;SDS011;52789;59.980;30.346;2024-02-15T14:27:42;43.63;;;22.73;;
66020;SDS011;52789;59.980;30.346;2024-02-15T14:30:09;41.13;;;21.67;;
66020;SDS011;52789;59.980;30.346;2024-02-15T14:32:56;46.38;;;24.52;;
66020;SDS011;52789;59.980;30.346;2024-02-15T14:35:39;40.65;;;21.38;;
66020;SDS011;52789;59.980;30.346;2024-02-15T14:38:11;45.78;;;21.27;;
66020;SDS011;52789;59.980;30.346;2024-02-15T14:40:38;47.35;;;22.70;;
66020;SDS011;52789;59.980;30.346;2024-02-15T14:43:10;50.88;;;22.55;;
66020;SDS011;52789;59.980;30.346;2024-02-15T14:45:39;54.03;;;25.27;;